createdAt,value
2023-04-15T00:05:05.603Z,22.30
2023-04-15T00:12:49.868Z,19.50
2023-04-15T00:20:56.128Z,23.97
2023-04-15T00:28:56.154Z,25.85
2023-04-15T00:36:42.255Z,25.30
2023-04-15T00:44:20.167Z,23.10
2023-04-15T00:51:54.003Z,26.67
2023-04-15T00:59:45.415Z,24.48
2023-04-15T01:07:19.440Z,23.33
2023-04-15T01:15:21.834Z,24.80
2023-04-15T01:22:56.867Z,22.58
2023-04-15T01:30:59.758Z,25.02
2023-04-15T01:38:34.327Z,26.23
2023-04-15T01:54:30.322Z,25.15
2023-04-15T02:02:13.014Z,26.35
2023-04-15T02:10:01.605Z,22.90
2023-04-15T02:17:59.065Z,23.73
2023-04-15T02:25:36.023Z,26.90
2023-04-15T02:33:26.637Z,24.98
2023-04-15T02:41:00.428Z,24.85
2023-04-15T02:48:49.421Z,27.20
2023-04-15T02:56:44.980Z,22.27
2023-04-15T03:12:11.016Z,26.08
2023-04-15T03:20:02.365Z,23.95
2023-04-15T03:27:39.630Z,22.45
2023-04-15T03:35:20.955Z,26.55
2023-04-15T03:59:01.533Z,23.40
2023-04-15T04:06:45.665Z,25.92
2023-04-15T04:14:29.741Z,23.88
2023-04-15T04:22:13.576Z,23.55
2023-04-15T04:29:56.819Z,22.50
2023-04-15T04:38:03.952Z,22.52
2023-04-15T04:45:41.408Z,22.67
2023-04-15T05:01:21.947Z,22.05
2023-04-15T05:09:20.776Z,20.40
2023-04-15T05:17:02.174Z,22.08
2023-04-15T05:32:49.275Z,21.23
2023-04-15T05:40:24.485Z,21.40
2023-04-15T05:48:04.390Z,18.85
2023-04-15T05:55:45.585Z,19.55
2023-04-15T06:03:25.965Z,19.20
2023-04-15T06:11:50.681Z,20.88
2023-04-15T06:19:54.519Z,18.00
2023-04-15T06:27:31.118Z,20.92
2023-04-15T06:35:16.035Z,18.75
2023-04-15T06:42:56.504Z,18.23
2023-04-15T06:50:31.768Z,19.17
2023-04-15T06:58:05.835Z,18.40
2023-04-15T07:05:42.586Z,17.33
2023-04-15T07:13:23.994Z,17.92
2023-04-15T07:28:56.287Z,16.25
2023-04-15T07:36:31.527Z,15.85
2023-04-15T07:44:14.204Z,15.68
2023-04-15T07:51:57.821Z,15.32
2023-04-15T07:59:33.481Z,15.30
2023-04-15T08:07:16.346Z,14.25
2023-04-15T08:14:57.780Z,15.52
2023-04-15T08:22:39.165Z,13.50
2023-04-15T08:30:19.388Z,15.23
2023-04-15T08:38:02.006Z,14.05
2023-04-15T08:45:43.309Z,14.38
2023-04-15T08:53:34.135Z,15.77
2023-04-15T09:33:24.071Z,14.88
2023-04-15T09:41:24.373Z,14.40
2023-04-15T09:49:26.681Z,14.50
2023-04-15T09:57:15.803Z,14.20
2023-04-15T10:04:58.022Z,14.07
2023-04-15T10:12:33.638Z,14.48
2023-04-15T10:20:56.402Z,12.80
2023-04-15T10:28:50.906Z,14.52
2023-04-15T10:36:48.463Z,13.95
2023-04-15T10:44:31.306Z,13.65
2023-04-15T10:52:11.438Z,13.55
2023-04-15T11:00:14.500Z,12.95
2023-04-15T11:08:13.477Z,12.20
2023-04-15T11:48:48.743Z,12.15
2023-04-15T11:56:28.858Z,12.25
2023-04-15T12:04:28.802Z,11.27
2023-04-15T12:12:03.012Z,11.88
2023-04-15T12:19:45.659Z,12.50
2023-04-15T12:27:19.555Z,12.80
2023-04-15T12:43:02.070Z,12.30
2023-04-15T12:50:42.014Z,12.13
2023-04-15T12:58:15.902Z,11.75
2023-04-15T13:05:53.893Z,12.02
2023-04-15T13:13:35.350Z,10.00
2023-04-15T13:21:18.940Z,11.05
2023-04-15T13:29:14.528Z,12.50
2023-04-15T13:36:49.942Z,10.68
2023-04-15T13:44:26.599Z,12.15
2023-04-15T13:52:02.162Z,10.35
2023-04-15T13:59:44.061Z,10.60
2023-04-15T14:07:26.985Z,9.38
2023-04-15T14:15:07.645Z,8.82
2023-04-15T14:22:56.222Z,8.38
2023-04-15T14:38:31.454Z,8.32
2023-04-15T14:54:03.431Z,7.18
2023-04-15T15:01:41.020Z,8.57
2023-04-15T15:09:29.336Z,10.45
2023-04-15T15:17:12.300Z,8.23
2023-04-15T15:24:47.752Z,8.07
2023-04-15T15:32:32.128Z,8.52
2023-04-15T15:40:22.870Z,7.37
2023-04-15T15:48:08.786Z,6.45
2023-04-15T15:55:51.108Z,8.98
2023-04-15T16:03:32.315Z,7.85
2023-04-15T16:11:31.100Z,8.02
2023-04-15T16:19:05.126Z,9.30
2023-04-15T16:26:49.462Z,9.23
2023-04-15T16:34:48.479Z,9.90
2023-04-15T16:50:32.422Z,9.43
2023-04-15T16:58:14.943Z,7.25
2023-04-15T17:05:54.999Z,7.03
2023-04-15T17:13:36.594Z,7.25
2023-04-15T17:21:19.797Z,8.48
2023-04-15T17:28:55.025Z,8.25
2023-04-15T17:44:30.366Z,8.98
2023-04-15T17:52:08.351Z,9.07
2023-04-15T18:00:17.982Z,7.45
2023-04-15T18:07:59.180Z,6.35
2023-04-15T18:23:49.695Z,7.90
2023-04-15T18:31:23.703Z,8.32
2023-04-15T18:47:13.916Z,9.52
2023-04-15T19:02:57.428Z,8.30
2023-04-15T19:19:51.805Z,9.40
2023-04-15T19:28:02.916Z,9.75
2023-04-15T19:36:42.067Z,9.43
2023-04-15T19:44:34.878Z,11.45
2023-04-15T19:52:41.864Z,9.20
2023-04-15T20:00:43.171Z,10.55
2023-04-15T20:08:53.089Z,10.88
2023-04-15T20:16:30.572Z,11.05
2023-04-15T20:24:19.394Z,14.73
2023-04-15T20:40:30.723Z,17.80
2023-04-15T20:48:11.098Z,17.50
2023-04-15T20:56:13.412Z,15.70
2023-04-15T21:03:58.830Z,16.05
2023-04-15T21:19:30.594Z,16.63
2023-04-15T21:27:35.696Z,17.42
2023-04-15T21:35:41.131Z,16.93
2023-04-15T21:43:16.904Z,17.17
2023-04-15T21:50:50.716Z,17.35
2023-04-15T21:58:54.663Z,16.08
2023-04-15T22:06:46.930Z,15.80
2023-04-15T22:14:59.304Z,15.57
2023-04-15T22:22:43.514Z,15.82
2023-04-15T22:30:35.828Z,14.63
2023-04-15T22:38:12.511Z,15.45
2023-04-15T22:54:00.222Z,15.32
2023-04-15T23:01:43.338Z,14.38
2023-04-15T23:17:10.300Z,15.65
2023-04-15T23:25:09.298Z,18.38
2023-04-15T23:32:46.359Z,17.25
2023-04-15T23:40:48.320Z,16.73
2023-04-15T23:48:25.174Z,18.80
